Historyczne dane pomiarowe

Dodano dane terminowe – wersja testowa.

Dane z okresu 1951-2019

Wersja bazy: 1.34 [2019-03-16, lista zmian], aktualizacja planowana na 2019-04-15

Dane meteo z obszaru Polski uzyskane na podstawie danych udostępnionych przez Instytut Meteorologii i Gospodarki Wodnej – Państwowy Instytut Badawczy.

 

Wybierz Datę:    

       

TemperaturaWilgotnośćWiatrCiśnienieOpadyŚniegCzas trwania zjawisk
 Stacja t tx tn tng RH VA  wxwx mslp ppp RRR   cm mm wxwxwxwxwxwxwx
2012-09-11 11.1 14.8 9.3- 52.1 6.9 1.4 5.8 1.2 0.0- 805.6 0.0 0.0 0.0- 0.0 11.3-------
2012-09-12 9.3 11.9 8.0- 71.4 8.3 5.3 8.1 3.7 0.0- 798.7 0.0 0.0 0.0- 0.0 5.6-------
2012-09-13 6.3 9.0 4.9- 85.4 8.1 7.3 5.4 2.5 0.0- 794.5 13.9 10.5 3.4- 0.0 0.0 12.7-- 10.1---
2012-09-14 6.2 6.9 2.0- 99.9 9.5 8.0 6.8 0.2 0.0- 798.1 1.9 1.7 0.2- 0.0 0.0 8.6-- 22.9---
2012-09-15 3.1 7.5 1.0- 91.0 7.0 7.5 4.8 0.0 0.0- 797.8 0.0 0.0 0.0- 0.0 1.3--- 17.4---
2012-09-16 1.8 3.7 0.0- 96.9 6.7 7.3 3.6 0.0 0.0- 802.1 0.0 0.0 0.0- 0.0 0.0--- 12.2---
2012-09-17 5.0 9.5 0.9- 83.6 7.3 2.1 4.0 0.0 0.0- 802.4 0.0 0.0 0.0- 0.0 10.6---- 2.0 2.0-
2012-09-18 6.0 7.6 4.5- 94.0 8.8 4.9 8.6 10.8 0.0- 801.8 0.0 0.0 0.0- 0.0 2.0--- 10.4 2.0--
2012-09-19 4.8 8.8 0.9- 98.4 8.6 7.8 8.0 11.2 0.0- 798.4 28.0 8.5 19.5- 0.0 0.4 2.8 3.7- 17.5-- 0.6
2012-09-20 -2.9 0.9 -3.6- 99.4 4.9 8.0 10.9 16.7 0.0- 799.7 20.7 20.7 0.0 14 1.9 0.0- 13.8- 24.0---
2012-09-21 -1.0 2.3 -5.2- 84.5 4.8 3.3 5.4 0.0 0.0- 802.5 0.0 0.0 0.0 23 2.0 10.6--- 1.4---
2012-09-22 3.5 6.5 -0.7- 57.4 4.5 5.1 10.1 12.3 0.7- 798.0 0.8 0.0 0.8 16 2.5 2.3 1.2-- 5.0---
2012-09-23 1.3 4.3 -1.7- 57.0 3.8 4.3 5.1 1.5 0.0- 800.0 0.0 0.0 0.0 11 3.2 5.4--- 1.7---
2012-09-24 5.9 7.5 1.6- 98.1 9.2 6.5 12.1 21.5 0.0- 795.1 0.7 0.0 0.7- 0.0 0.5 0.1-- 17.8---
2012-09-25 6.8 9.4 5.1- 97.6 9.7 3.8 6.1 5.3 0.0- 795.0 2.4 2.4 0.0- 0.0 5.3 5.0-- 9.7---
2012-09-26 7.0 8.4 4.6- 92.5 9.3 6.4 14.4 24.0 10.3- 796.4 0.0 0.0 0.0- 0.0 2.8--- 0.6---
2012-09-27 8.4 9.4 7.9- 95.9 10.5 7.0 14.5 19.6 10.2- 797.1 3.2 3.2 0.0- 0.0 0.4 2.1-- 6.1---
2012-09-28 4.1 8.4 1.4- 82.9 6.9 4.1 5.0 0.0 0.0- 802.9 0.0 0.0 0.0- 0.0 9.9--- 3.0 2.0--
2012-09-29 5.8 9.3 2.4- 90.5 8.5 5.1 10.9 17.2 4.0- 802.8 4.7 0.5 4.2- 0.0 5.6 3.9-- 10.3---
2012-09-30 6.6 8.3 3.4- 83.9 8.1 4.9 7.1 2.7 0.0- 804.6 0.0 0.0 0.0- 0.0 8.2 2.8-- 6.4---
2012-10-01 9.5 11.9 6.7- 80.6 9.6 6.4 7.6 0.8 0.0- 805.2 0.1 0.0 0.1- 0.0 4.8 0.1------
2012-10-02 7.2 9.2 6.6- 96.5 9.8 7.5 5.9 0.0 0.0- 803.0 16.1 7.1 9.0- 0.0 0.3 8.0-- 10.1---
2012-10-03 4.8 7.1 3.8- 89.1 7.7 5.6 3.1 0.0 0.0- 800.7 1.3 1.3 0.0- 0.0 1.6 6.9-- 14.3---
2012-10-04 5.1 8.9 2.8- 80.1 7.0 5.1 6.1 6.3 0.0- 800.6 3.0 0.0 3.0- 0.0 8.1 0.8-- 2.4---
2012-10-05 2.7 5.9 -2.7- 67.1 5.0 5.9 8.9 13.1 0.0- 800.7 0.0 0.0 0.0- 0.0 8.6--- 3.3- 3.0-
2012-10-06 6.8 10.7 4.3- 78.5 7.7 3.9 10.8 17.7 0.6- 801.4 0.0 0.0 0.0- 0.0 9.1-------
2012-10-07 2.3 6.4 -3.0- 94.1 6.9 7.5 8.0 8.5 0.0- 796.1 28.2 19.4 8.8- 0.0 0.0 5.6 4.2 0.3 14.8---
2012-10-08 -4.6 -2.9 -5.1- 97.9 4.3 6.9 5.4 0.0 0.0- 796.8 2.6 2.3 0.3 11 3.8 0.3- 8.3- 18.9---
2012-10-09 -1.9 1.0 -5.6- 75.4 3.9 3.3 9.1 7.5 0.0- 792.7 0.2 0.0 0.2 11 3.5 8.6- 1.0- 3.1---
2012-10-10 -4.6 -1.7 -8.3- 90.3 3.9 6.8 3.1 0.0 0.0- 792.9 0.0 0.0 0.0 10 3.6 6.7--- 9.3---
126.5 ms

 

Źródłem pochodzenia danych jest Instytut Meteorologii i Gospodarki Wodnej – Państwowy Instytut Badawczy. Dane Instytutu Meteorologii i Gospodarki Wodnej – Państwowego Instytutu Badawczego zostały przetworzone.

Dane źródłowe można odnaleźć na stronie https://dane.imgw.pl